sensor_id;sensor_type;location;lat;lon;timestamp;P1;durP1;ratioP1;P2;durP2;ratioP2
70067;SDS011;57425;51.616;6.680;2023-04-25T00:00:35;7.87;;;2.10;;
70067;SDS011;57425;51.616;6.680;2023-04-25T00:03:01;9.43;;;2.93;;
70067;SDS011;57425;51.616;6.680;2023-04-25T00:05:27;19.33;;;2.77;;
70067;SDS011;57425;51.616;6.680;2023-04-25T00:07:52;6.33;;;2.17;;
70067;SDS011;57425;51.616;6.680;2023-04-25T00:10:19;9.67;;;2.23;;
70067;SDS011;57425;51.616;6.680;2023-04-25T00:12:45;3.40;;;1.87;;
70067;SDS011;57425;51.616;6.680;2023-04-25T00:15:11;5.23;;;2.33;;
70067;SDS011;57425;51.616;6.680;2023-04-25T00:17:37;5.50;;;2.53;;
70067;SDS011;57425;51.616;6.680;2023-04-25T00:20:03;13.10;;;2.10;;
70067;SDS011;57425;51.616;6.680;2023-04-25T00:22:30;8.53;;;2.43;;
70067;SDS011;57425;51.616;6.680;2023-04-25T00:24:56;6.10;;;2.77;;
70067;SDS011;57425;51.616;6.680;2023-04-25T00:27:25;7.73;;;2.40;;
70067;SDS011;57425;51.616;6.680;2023-04-25T00:29:51;11.27;;;2.47;;
70067;SDS011;57425;51.616;6.680;2023-04-25T00:32:17;10.67;;;1.77;;
70067;SDS011;57425;51.616;6.680;2023-04-25T00:34:42;4.83;;;2.43;;
70067;SDS011;57425;51.616;6.680;2023-04-25T00:37:08;6.13;;;2.07;;
70067;SDS011;57425;51.616;6.680;2023-04-25T00:39:33;11.13;;;2.70;;
70067;SDS011;57425;51.616;6.680;2023-04-25T00:41:59;7.27;;;1.93;;
70067;SDS011;57425;51.616;6.680;2023-04-25T00:44:26;6.90;;;2.20;;
70067;SDS011;57425;51.616;6.680;2023-04-25T00:46:54;11.17;;;2.70;;
70067;SDS011;57425;51.616;6.680;2023-04-25T00:49:20;7.50;;;2.27;;
70067;SDS011;57425;51.616;6.680;2023-04-25T00:51:47;6.30;;;1.90;;
70067;SDS011;57425;51.616;6.680;2023-04-25T00:54:13;12.07;;;2.50;;
70067;SDS011;57425;51.616;6.680;2023-04-25T00:56:40;8.17;;;2.63;;
70067;SDS011;57425;51.616;6.680;2023-04-25T00:59:07;7.30;;;2.10;;
70067;SDS011;57425;51.616;6.680;2023-04-25T01:01:34;6.03;;;2.37;;
70067;SDS011;57425;51.616;6.680;2023-04-25T01:04:00;6.30;;;2.47;;
70067;SDS011;57425;51.616;6.680;2023-04-25T01:06:26;5.83;;;2.80;;
70067;SDS011;57425;51.616;6.680;2023-04-25T01:08:52;5.63;;;2.30;;
70067;SDS011;57425;51.616;6.680;2023-04-25T01:11:18;9.83;;;2.40;;
70067;SDS011;57425;51.616;6.680;2023-04-25T01:13:44;8.97;;;2.03;;
70067;SDS011;57425;51.616;6.680;2023-04-25T01:16:10;7.50;;;2.73;;
70067;SDS011;57425;51.616;6.680;2023-04-25T01:18:37;9.83;;;2.63;;
70067;SDS011;57425;51.616;6.680;2023-04-25T01:21:09;4.97;;;2.17;;
70067;SDS011;57425;51.616;6.680;2023-04-25T01:23:36;8.57;;;2.13;;
70067;SDS011;57425;51.616;6.680;2023-04-25T01:26:04;5.77;;;2.07;;
70067;SDS011;57425;51.616;6.680;2023-04-25T01:28:33;8.30;;;2.20;;
70067;SDS011;57425;51.616;6.680;2023-04-25T01:30:59;6.83;;;2.70;;
70067;SDS011;57425;51.616;6.680;2023-04-25T01:33:26;6.37;;;2.23;;
70067;SDS011;57425;51.616;6.680;2023-04-25T01:35:52;6.80;;;2.17;;
70067;SDS011;57425;51.616;6.680;2023-04-25T01:38:18;6.17;;;2.07;;
70067;SDS011;57425;51.616;6.680;2023-04-25T01:40:44;3.90;;;2.10;;
70067;SDS011;57425;51.616;6.680;2023-04-25T01:43:13;7.27;;;2.80;;
70067;SDS011;57425;51.616;6.680;2023-04-25T01:45:39;7.63;;;2.47;;
70067;SDS011;57425;51.616;6.680;2023-04-25T01:48:06;5.37;;;2.27;;
70067;SDS011;57425;51.616;6.680;2023-04-25T01:50:33;11.73;;;2.00;;
70067;SDS011;57425;51.616;6.680;2023-04-25T01:52:59;5.60;;;1.93;;
70067;SDS011;57425;51.616;6.680;2023-04-25T01:55:26;5.70;;;1.73;;
70067;SDS011;57425;51.616;6.680;2023-04-25T01:57:52;7.30;;;2.00;;
70067;SDS011;57425;51.616;6.680;2023-04-25T02:00:18;9.50;;;2.17;;
70067;SDS011;57425;51.616;6.680;2023-04-25T02:02:43;7.10;;;2.33;;
70067;SDS011;57425;51.616;6.680;2023-04-25T02:05:10;11.10;;;1.80;;
70067;SDS011;57425;51.616;6.680;2023-04-25T02:07:36;5.03;;;2.20;;
70067;SDS011;57425;51.616;6.680;2023-04-25T02:10:02;7.23;;;2.40;;
70067;SDS011;57425;51.616;6.680;2023-04-25T02:12:28;9.03;;;2.43;;
70067;SDS011;57425;51.616;6.680;2023-04-25T02:14:54;9.77;;;2.13;;
70067;SDS011;57425;51.616;6.680;2023-04-25T02:17:20;8.33;;;2.23;;
70067;SDS011;57425;51.616;6.680;2023-04-25T02:19:46;4.90;;;1.83;;
70067;SDS011;57425;51.616;6.680;2023-04-25T02:22:12;4.63;;;1.87;;
70067;SDS011;57425;51.616;6.680;2023-04-25T02:24:38;3.27;;;1.33;;
70067;SDS011;57425;51.616;6.680;2023-04-25T02:27:04;6.47;;;2.03;;
70067;SDS011;57425;51.616;6.680;2023-04-25T02:29:30;15.90;;;2.30;;
70067;SDS011;57425;51.616;6.680;2023-04-25T02:31:56;6.93;;;2.30;;
70067;SDS011;57425;51.616;6.680;2023-04-25T02:34:22;3.50;;;1.93;;
70067;SDS011;57425;51.616;6.680;2023-04-25T02:36:48;7.43;;;1.70;;
70067;SDS011;57425;51.616;6.680;2023-04-25T02:39:15;7.53;;;2.17;;
70067;SDS011;57425;51.616;6.680;2023-04-25T02:41:41;5.67;;;1.90;;
70067;SDS011;57425;51.616;6.680;2023-04-25T02:44:07;7.60;;;2.57;;
70067;SDS011;57425;51.616;6.680;2023-04-25T02:46:33;11.80;;;2.40;;
70067;SDS011;57425;51.616;6.680;2023-04-25T02:48:59;6.40;;;1.63;;
70067;SDS011;57425;51.616;6.680;2023-04-25T02:51:25;4.83;;;1.67;;
70067;SDS011;57425;51.616;6.680;2023-04-25T02:53:51;10.10;;;2.30;;
70067;SDS011;57425;51.616;6.680;2023-04-25T02:56:17;4.47;;;2.23;;
70067;SDS011;57425;51.616;6.680;2023-04-25T02:58:42;9.27;;;2.27;;
70067;SDS011;57425;51.616;6.680;2023-04-25T03:01:09;14.13;;;2.07;;
70067;SDS011;57425;51.616;6.680;2023-04-25T03:03:34;7.47;;;1.80;;
70067;SDS011;57425;51.616;6.680;2023-04-25T03:06:00;8.37;;;2.70;;
70067;SDS011;57425;51.616;6.680;2023-04-25T03:08:26;6.67;;;3.13;;
70067;SDS011;57425;51.616;6.680;2023-04-25T03:10:56;4.83;;;1.77;;
70067;SDS011;57425;51.616;6.680;2023-04-25T03:13:22;4.17;;;2.80;;
70067;SDS011;57425;51.616;6.680;2023-04-25T03:15:47;7.73;;;2.30;;
70067;SDS011;57425;51.616;6.680;2023-04-25T03:18:13;10.20;;;2.07;;
70067;SDS011;57425;51.616;6.680;2023-04-25T03:20:39;5.50;;;2.40;;
70067;SDS011;57425;51.616;6.680;2023-04-25T03:23:06;8.40;;;2.77;;
70067;SDS011;57425;51.616;6.680;2023-04-25T03:25:32;13.73;;;2.40;;
70067;SDS011;57425;51.616;6.680;2023-04-25T03:27:58;5.03;;;2.07;;
70067;SDS011;57425;51.616;6.680;2023-04-25T03:30:23;5.33;;;2.07;;
70067;SDS011;57425;51.616;6.680;2023-04-25T03:32:49;15.17;;;2.70;;
70067;SDS011;57425;51.616;6.680;2023-04-25T03:35:14;6.67;;;2.73;;
70067;SDS011;57425;51.616;6.680;2023-04-25T03:37:40;9.83;;;2.70;;
70067;SDS011;57425;51.616;6.680;2023-04-25T03:40:06;4.27;;;2.13;;
70067;SDS011;57425;51.616;6.680;2023-04-25T03:42:32;8.47;;;2.97;;
70067;SDS011;57425;51.616;6.680;2023-04-25T03:44:59;6.70;;;2.53;;
70067;SDS011;57425;51.616;6.680;2023-04-25T03:47:24;12.30;;;2.20;;
70067;SDS011;57425;51.616;6.680;2023-04-25T03:49:50;7.83;;;2.40;;
70067;SDS011;57425;51.616;6.680;2023-04-25T03:52:16;5.87;;;2.27;;
70067;SDS011;57425;51.616;6.680;2023-04-25T03:54:42;10.30;;;2.40;;
70067;SDS011;57425;51.616;6.680;2023-04-25T03:57:08;10.00;;;2.83;;
70067;SDS011;57425;51.616;6.680;2023-04-25T03:59:33;5.33;;;2.50;;
70067;SDS011;57425;51.616;6.680;2023-04-25T04:01:59;6.70;;;1.63;;
70067;SDS011;57425;51.616;6.680;2023-04-25T04:04:25;6.70;;;2.20;;
70067;SDS011;57425;51.616;6.680;2023-04-25T04:06:51;11.47;;;2.13;;
70067;SDS011;57425;51.616;6.680;2023-04-25T04:09:17;9.00;;;2.47;;
70067;SDS011;57425;51.616;6.680;2023-04-25T04:11:44;9.57;;;2.57;;
70067;SDS011;57425;51.616;6.680;2023-04-25T04:14:10;3.70;;;2.20;;
70067;SDS011;57425;51.616;6.680;2023-04-25T04:16:35;8.50;;;2.60;;
70067;SDS011;57425;51.616;6.680;2023-04-25T04:19:02;9.77;;;2.47;;
70067;SDS011;57425;51.616;6.680;2023-04-25T04:21:28;19.07;;;2.67;;
70067;SDS011;57425;51.616;6.680;2023-04-25T04:23:57;12.33;;;2.63;;
70067;SDS011;57425;51.616;6.680;2023-04-25T04:26:24;7.17;;;2.00;;
70067;SDS011;57425;51.616;6.680;2023-04-25T04:28:51;8.50;;;2.13;;
70067;SDS011;57425;51.616;6.680;2023-04-25T04:31:16;9.63;;;2.10;;
70067;SDS011;57425;51.616;6.680;2023-04-25T04:33:44;13.00;;;2.60;;
70067;SDS011;57425;51.616;6.680;2023-04-25T04:36:10;14.57;;;2.40;;
70067;SDS011;57425;51.616;6.680;2023-04-25T04:38:36;15.20;;;3.73;;
70067;SDS011;57425;51.616;6.680;2023-04-25T04:41:02;11.30;;;2.70;;
70067;SDS011;57425;51.616;6.680;2023-04-25T04:43:28;6.90;;;2.53;;
70067;SDS011;57425;51.616;6.680;2023-04-25T04:45:55;11.57;;;2.50;;
70067;SDS011;57425;51.616;6.680;2023-04-25T04:48:21;14.37;;;2.40;;
70067;SDS011;57425;51.616;6.680;2023-04-25T04:50:47;9.97;;;2.33;;
70067;SDS011;57425;51.616;6.680;2023-04-25T04:53:13;5.00;;;1.97;;
70067;SDS011;57425;51.616;6.680;2023-04-25T04:55:40;8.20;;;2.20;;
70067;SDS011;57425;51.616;6.680;2023-04-25T04:58:07;11.60;;;2.80;;
70067;SDS011;57425;51.616;6.680;2023-04-25T05:00:33;10.03;;;2.43;;
70067;SDS011;57425;51.616;6.680;2023-04-25T05:02:59;6.00;;;1.90;;
70067;SDS011;57425;51.616;6.680;2023-04-25T05:05:25;11.73;;;2.10;;
70067;SDS011;57425;51.616;6.680;2023-04-25T05:07:51;5.97;;;2.13;;
70067;SDS011;57425;51.616;6.680;2023-04-25T05:10:17;14.07;;;2.27;;
70067;SDS011;57425;51.616;6.680;2023-04-25T05:12:43;7.30;;;2.60;;
70067;SDS011;57425;51.616;6.680;2023-04-25T05:15:09;7.13;;;1.90;;
70067;SDS011;57425;51.616;6.680;2023-04-25T05:17:36;9.17;;;2.40;;
70067;SDS011;57425;51.616;6.680;2023-04-25T05:20:01;13.57;;;2.37;;
70067;SDS011;57425;51.616;6.680;2023-04-25T05:22:28;7.80;;;1.93;;
70067;SDS011;57425;51.616;6.680;2023-04-25T05:24:53;8.53;;;2.03;;
70067;SDS011;57425;51.616;6.680;2023-04-25T05:27:19;8.17;;;2.53;;
70067;SDS011;57425;51.616;6.680;2023-04-25T05:29:45;8.70;;;1.90;;
70067;SDS011;57425;51.616;6.680;2023-04-25T05:32:10;6.60;;;2.50;;
70067;SDS011;57425;51.616;6.680;2023-04-25T05:34:37;6.77;;;2.37;;
70067;SDS011;57425;51.616;6.680;2023-04-25T05:37:03;7.83;;;2.27;;
70067;SDS011;57425;51.616;6.680;2023-04-25T05:39:29;13.00;;;2.30;;
70067;SDS011;57425;51.616;6.680;2023-04-25T05:41:55;7.93;;;2.33;;
70067;SDS011;57425;51.616;6.680;2023-04-25T05:44:21;13.97;;;2.47;;
70067;SDS011;57425;51.616;6.680;2023-04-25T05:46:47;13.80;;;2.33;;
70067;SDS011;57425;51.616;6.680;2023-04-25T05:49:13;10.90;;;2.00;;
70067;SDS011;57425;51.616;6.680;2023-04-25T05:51:39;6.90;;;2.63;;
70067;SDS011;57425;51.616;6.680;2023-04-25T05:54:05;6.83;;;2.10;;
70067;SDS011;57425;51.616;6.680;2023-04-25T05:56:31;4.73;;;1.97;;
70067;SDS011;57425;51.616;6.680;2023-04-25T05:58:56;10.20;;;2.13;;
70067;SDS011;57425;51.616;6.680;2023-04-25T06:01:22;5.40;;;2.00;;
70067;SDS011;57425;51.616;6.680;2023-04-25T06:03:48;5.60;;;2.33;;
70067;SDS011;57425;51.616;6.680;2023-04-25T06:06:13;9.07;;;1.73;;
70067;SDS011;57425;51.616;6.680;2023-04-25T06:08:40;5.33;;;1.97;;
70067;SDS011;57425;51.616;6.680;2023-04-25T06:11:06;13.43;;;2.27;;
70067;SDS011;57425;51.616;6.680;2023-04-25T06:13:32;10.43;;;1.73;;
70067;SDS011;57425;51.616;6.680;2023-04-25T06:15:58;6.53;;;2.30;;
70067;SDS011;57425;51.616;6.680;2023-04-25T06:18:24;12.97;;;2.17;;
70067;SDS011;57425;51.616;6.680;2023-04-25T06:20:49;6.77;;;2.00;;
70067;SDS011;57425;51.616;6.680;2023-04-25T06:23:15;8.93;;;2.27;;
70067;SDS011;57425;51.616;6.680;2023-04-25T06:25:41;4.50;;;1.90;;
70067;SDS011;57425;51.616;6.680;2023-04-25T06:28:06;9.63;;;1.90;;
70067;SDS011;57425;51.616;6.680;2023-04-25T06:30:32;9.53;;;2.43;;
70067;SDS011;57425;51.616;6.680;2023-04-25T06:32:58;4.07;;;1.77;;
70067;SDS011;57425;51.616;6.680;2023-04-25T06:35:24;6.70;;;2.03;;
70067;SDS011;57425;51.616;6.680;2023-04-25T06:37:50;14.40;;;2.13;;
70067;SDS011;57425;51.616;6.680;2023-04-25T06:40:15;6.20;;;1.97;;
70067;SDS011;57425;51.616;6.680;2023-04-25T06:42:42;3.77;;;1.83;;
70067;SDS011;57425;51.616;6.680;2023-04-25T06:45:08;9.40;;;2.07;;
70067;SDS011;57425;51.616;6.680;2023-04-25T06:47:34;8.47;;;2.10;;
70067;SDS011;57425;51.616;6.680;2023-04-25T06:50:00;10.50;;;2.20;;
70067;SDS011;57425;51.616;6.680;2023-04-25T06:52:26;13.00;;;2.10;;
70067;SDS011;57425;51.616;6.680;2023-04-25T06:54:52;5.93;;;1.80;;
70067;SDS011;57425;51.616;6.680;2023-04-25T06:57:18;7.93;;;2.20;;
70067;SDS011;57425;51.616;6.680;2023-04-25T06:59:44;5.70;;;1.77;;
70067;SDS011;57425;51.616;6.680;2023-04-25T07:02:10;9.20;;;2.00;;
70067;SDS011;57425;51.616;6.680;2023-04-25T07:04:35;10.13;;;1.60;;
70067;SDS011;57425;51.616;6.680;2023-04-25T07:07:01;9.17;;;1.60;;
70067;SDS011;57425;51.616;6.680;2023-04-25T07:09:28;5.20;;;1.77;;
70067;SDS011;57425;51.616;6.680;2023-04-25T07:11:54;4.93;;;1.77;;
70067;SDS011;57425;51.616;6.680;2023-04-25T07:14:19;4.97;;;2.00;;
70067;SDS011;57425;51.616;6.680;2023-04-25T07:16:45;4.40;;;1.60;;
70067;SDS011;57425;51.616;6.680;2023-04-25T07:19:11;10.60;;;2.07;;
70067;SDS011;57425;51.616;6.680;2023-04-25T07:21:37;11.97;;;1.70;;
70067;SDS011;57425;51.616;6.680;2023-04-25T07:24:03;6.07;;;1.30;;
70067;SDS011;57425;51.616;6.680;2023-04-25T07:26:29;8.83;;;1.20;;
70067;SDS011;57425;51.616;6.680;2023-04-25T07:28:55;8.03;;;2.17;;
70067;SDS011;57425;51.616;6.680;2023-04-25T07:31:21;7.60;;;1.77;;
70067;SDS011;57425;51.616;6.680;2023-04-25T07:33:47;12.37;;;1.83;;
70067;SDS011;57425;51.616;6.680;2023-04-25T07:36:13;2.80;;;1.33;;
70067;SDS011;57425;51.616;6.680;2023-04-25T07:38:40;10.60;;;1.60;;
70067;SDS011;57425;51.616;6.680;2023-04-25T07:41:06;9.67;;;1.40;;
70067;SDS011;57425;51.616;6.680;2023-04-25T07:43:31;2.50;;;1.20;;
70067;SDS011;57425;51.616;6.680;2023-04-25T07:45:57;9.90;;;1.57;;
70067;SDS011;57425;51.616;6.680;2023-04-25T07:48:23;5.77;;;1.40;;
70067;SDS011;57425;51.616;6.680;2023-04-25T07:50:49;13.47;;;1.53;;
70067;SDS011;57425;51.616;6.680;2023-04-25T07:53:15;12.77;;;2.33;;
70067;SDS011;57425;51.616;6.680;2023-04-25T07:55:42;12.87;;;1.43;;
70067;SDS011;57425;51.616;6.680;2023-04-25T07:58:08;11.83;;;1.53;;
70067;SDS011;57425;51.616;6.680;2023-04-25T08:00:35;7.83;;;1.33;;
70067;SDS011;57425;51.616;6.680;2023-04-25T08:03:01;4.70;;;1.47;;
70067;SDS011;57425;51.616;6.680;2023-04-25T08:05:27;16.43;;;1.20;;
70067;SDS011;57425;51.616;6.680;2023-04-25T08:07:53;13.40;;;1.57;;
70067;SDS011;57425;51.616;6.680;2023-04-25T08:10:19;8.23;;;1.93;;
70067;SDS011;57425;51.616;6.680;2023-04-25T08:12:45;8.10;;;1.67;;
70067;SDS011;57425;51.616;6.680;2023-04-25T08:15:11;14.10;;;1.93;;
70067;SDS011;57425;51.616;6.680;2023-04-25T08:17:38;7.87;;;1.40;;
70067;SDS011;57425;51.616;6.680;2023-04-25T08:20:04;9.80;;;1.50;;
70067;SDS011;57425;51.616;6.680;2023-04-25T08:22:30;6.40;;;1.10;;
70067;SDS011;57425;51.616;6.680;2023-04-25T08:24:56;1.57;;;1.00;;
70067;SDS011;57425;51.616;6.680;2023-04-25T08:27:22;5.03;;;1.37;;
70067;SDS011;57425;51.616;6.680;2023-04-25T08:29:48;7.53;;;1.23;;
70067;SDS011;57425;51.616;6.680;2023-04-25T08:32:15;23.90;;;1.60;;
70067;SDS011;57425;51.616;6.680;2023-04-25T08:34:41;17.03;;;1.20;;
70067;SDS011;57425;51.616;6.680;2023-04-25T08:37:08;9.90;;;1.67;;
70067;SDS011;57425;51.616;6.680;2023-04-25T08:39:35;8.77;;;1.27;;
70067;SDS011;57425;51.616;6.680;2023-04-25T08:42:02;9.60;;;1.30;;
70067;SDS011;57425;51.616;6.680;2023-04-25T08:44:31;6.70;;;1.23;;
70067;SDS011;57425;51.616;6.680;2023-04-25T08:46:58;6.27;;;1.80;;
70067;SDS011;57425;51.616;6.680;2023-04-25T08:49:24;6.83;;;1.00;;
70067;SDS011;57425;51.616;6.680;2023-04-25T08:51:50;2.60;;;1.03;;
70067;SDS011;57425;51.616;6.680;2023-04-25T08:54:18;6.20;;;1.30;;
70067;SDS011;57425;51.616;6.680;2023-04-25T08:56:48;6.33;;;1.23;;
70067;SDS011;57425;51.616;6.680;2023-04-25T08:59:14;2.03;;;0.73;;
70067;SDS011;57425;51.616;6.680;2023-04-25T09:01:40;8.47;;;1.17;;
70067;SDS011;57425;51.616;6.680;2023-04-25T09:04:06;1.43;;;0.43;;
70067;SDS011;57425;51.616;6.680;2023-04-25T09:06:32;9.20;;;1.13;;
70067;SDS011;57425;51.616;6.680;2023-04-25T09:09:06;5.07;;;0.57;;
70067;SDS011;57425;51.616;6.680;2023-04-25T09:11:33;7.47;;;1.00;;
70067;SDS011;57425;51.616;6.680;2023-04-25T09:14:13;3.57;;;0.93;;
70067;SDS011;57425;51.616;6.680;2023-04-25T09:19:28;2.47;;;1.20;;
70067;SDS011;57425;51.616;6.680;2023-04-25T09:22:02;4.47;;;0.60;;
70067;SDS011;57425;51.616;6.680;2023-04-25T09:24:44;4.57;;;0.70;;
70067;SDS011;57425;51.616;6.680;2023-04-25T09:27:17;2.90;;;0.90;;
70067;SDS011;57425;51.616;6.680;2023-04-25T09:29:44;7.80;;;0.90;;
70067;SDS011;57425;51.616;6.680;2023-04-25T09:32:21;6.90;;;1.43;;
70067;SDS011;57425;51.616;6.680;2023-04-25T09:34:52;10.77;;;1.47;;
70067;SDS011;57425;51.616;6.680;2023-04-25T09:37:25;4.33;;;0.53;;
70067;SDS011;57425;51.616;6.680;2023-04-25T09:39:54;3.93;;;0.97;;
70067;SDS011;57425;51.616;6.680;2023-04-25T09:42:24;1.77;;;0.73;;
70067;SDS011;57425;51.616;6.680;2023-04-25T09:44:52;4.97;;;0.60;;
70067;SDS011;57425;51.616;6.680;2023-04-25T09:47:18;3.77;;;1.00;;
70067;SDS011;57425;51.616;6.680;2023-04-25T09:49:46;7.43;;;0.90;;
70067;SDS011;57425;51.616;6.680;2023-04-25T09:52:16;6.90;;;1.20;;
70067;SDS011;57425;51.616;6.680;2023-04-25T09:54:46;29.00;;;2.03;;
70067;SDS011;57425;51.616;6.680;2023-04-25T09:57:16;10.40;;;0.90;;
70067;SDS011;57425;51.616;6.680;2023-04-25T09:59:47;3.37;;;1.23;;
70067;SDS011;57425;51.616;6.680;2023-04-25T10:02:15;9.47;;;1.17;;
70067;SDS011;57425;51.616;6.680;2023-04-25T10:04:44;4.27;;;1.07;;
70067;SDS011;57425;51.616;6.680;2023-04-25T10:07:12;1.80;;;0.53;;
70067;SDS011;57425;51.616;6.680;2023-04-25T10:09:39;6.20;;;0.90;;
70067;SDS011;57425;51.616;6.680;2023-04-25T10:12:06;7.50;;;1.17;;
70067;SDS011;57425;51.616;6.680;2023-04-25T10:14:32;3.40;;;0.40;;
70067;SDS011;57425;51.616;6.680;2023-04-25T10:16:59;2.73;;;0.67;;
70067;SDS011;57425;51.616;6.680;2023-04-25T10:19:26;1.90;;;0.90;;
70067;SDS011;57425;51.616;6.680;2023-04-25T10:22:11;3.00;;;1.13;;
70067;SDS011;57425;51.616;6.680;2023-04-25T10:24:42;1.17;;;0.70;;
70067;SDS011;57425;51.616;6.680;2023-04-25T10:27:08;0.80;;;0.30;;
70067;SDS011;57425;51.616;6.680;2023-04-25T10:29:34;2.37;;;0.60;;
70067;SDS011;57425;51.616;6.680;2023-04-25T10:32:00;2.37;;;0.67;;
70067;SDS011;57425;51.616;6.680;2023-04-25T10:34:48;5.30;;;0.70;;
70067;SDS011;57425;51.616;6.680;2023-04-25T10:37:13;3.23;;;1.33;;
70067;SDS011;57425;51.616;6.680;2023-04-25T10:39:39;4.70;;;0.80;;
70067;SDS011;57425;51.616;6.680;2023-04-25T10:42:06;6.07;;;1.00;;
70067;SDS011;57425;51.616;6.680;2023-04-25T10:44:33;2.07;;;0.67;;
70067;SDS011;57425;51.616;6.680;2023-04-25T10:46:59;1.57;;;0.70;;
70067;SDS011;57425;51.616;6.680;2023-04-25T10:55:06;3.13;;;0.85;;
70067;SDS011;57425;51.616;6.680;2023-04-25T10:57:35;5.50;;;0.63;;
70067;SDS011;57425;51.616;6.680;2023-04-25T11:02:40;2.40;;;0.63;;
70067;SDS011;57425;51.616;6.680;2023-04-25T11:05:35;7.13;;;0.90;;
70067;SDS011;57425;51.616;6.680;2023-04-25T11:08:02;12.37;;;1.17;;
70067;SDS011;57425;51.616;6.680;2023-04-25T11:10:32;7.00;;;0.77;;
70067;SDS011;57425;51.616;6.680;2023-04-25T11:13:01;10.00;;;1.47;;
70067;SDS011;57425;51.616;6.680;2023-04-25T11:15:27;6.20;;;1.33;;
70067;SDS011;57425;51.616;6.680;2023-04-25T11:17:53;7.20;;;0.90;;
70067;SDS011;57425;51.616;6.680;2023-04-25T11:20:19;8.63;;;1.03;;
70067;SDS011;57425;51.616;6.680;2023-04-25T11:22:46;4.80;;;0.93;;
70067;SDS011;57425;51.616;6.680;2023-04-25T11:25:13;1.60;;;0.77;;
70067;SDS011;57425;51.616;6.680;2023-04-25T11:27:58;6.27;;;0.80;;
70067;SDS011;57425;51.616;6.680;2023-04-25T11:30:26;6.50;;;1.17;;
70067;SDS011;57425;51.616;6.680;2023-04-25T11:32:53;7.10;;;0.70;;
70067;SDS011;57425;51.616;6.680;2023-04-25T11:35:19;5.63;;;1.00;;
70067;SDS011;57425;51.616;6.680;2023-04-25T11:37:48;5.77;;;1.07;;
70067;SDS011;57425;51.616;6.680;2023-04-25T11:40:15;4.57;;;0.60;;
70067;SDS011;57425;51.616;6.680;2023-04-25T11:42:44;5.73;;;0.93;;
70067;SDS011;57425;51.616;6.680;2023-04-25T11:45:11;3.77;;;0.83;;
70067;SDS011;57425;51.616;6.680;2023-04-25T11:47:37;1.43;;;0.70;;
70067;SDS011;57425;51.616;6.680;2023-04-25T11:50:03;4.83;;;0.90;;
70067;SDS011;57425;51.616;6.680;2023-04-25T11:55:09;2.77;;;0.77;;
70067;SDS011;57425;51.616;6.680;2023-04-25T12:00:06;4.03;;;1.20;;
70067;SDS011;57425;51.616;6.680;2023-04-25T12:02:43;7.93;;;0.90;;
70067;SDS011;57425;51.616;6.680;2023-04-25T12:05:10;2.67;;;0.77;;
70067;SDS011;57425;51.616;6.680;2023-04-25T12:07:36;4.87;;;1.13;;
70067;SDS011;57425;51.616;6.680;2023-04-25T12:10:06;1.90;;;0.77;;
70067;SDS011;57425;51.616;6.680;2023-04-25T12:12:34;2.00;;;0.80;;
70067;SDS011;57425;51.616;6.680;2023-04-25T12:17:41;4.57;;;0.80;;
70067;SDS011;57425;51.616;6.680;2023-04-25T12:20:26;5.47;;;0.80;;
70067;SDS011;57425;51.616;6.680;2023-04-25T12:22:52;2.27;;;0.60;;
70067;SDS011;57425;51.616;6.680;2023-04-25T12:25:51;3.37;;;1.20;;
70067;SDS011;57425;51.616;6.680;2023-04-25T12:33:17;12.20;;;0.80;;
70067;SDS011;57425;51.616;6.680;2023-04-25T12:35:43;1.63;;;0.77;;
70067;SDS011;57425;51.616;6.680;2023-04-25T12:38:08;1.93;;;0.90;;
70067;SDS011;57425;51.616;6.680;2023-04-25T12:40:34;3.73;;;0.90;;
70067;SDS011;57425;51.616;6.680;2023-04-25T12:42:59;3.40;;;0.90;;
70067;SDS011;57425;51.616;6.680;2023-04-25T12:45:25;3.27;;;0.90;;
70067;SDS011;57425;51.616;6.680;2023-04-25T12:47:51;7.20;;;0.80;;
70067;SDS011;57425;51.616;6.680;2023-04-25T12:50:16;2.47;;;0.70;;
70067;SDS011;57425;51.616;6.680;2023-04-25T12:52:42;2.03;;;0.60;;
70067;SDS011;57425;51.616;6.680;2023-04-25T12:55:08;2.10;;;1.53;;
70067;SDS011;57425;51.616;6.680;2023-04-25T12:57:33;2.00;;;0.53;;
70067;SDS011;57425;51.616;6.680;2023-04-25T12:59:59;6.50;;;0.90;;
70067;SDS011;57425;51.616;6.680;2023-04-25T13:02:25;1.60;;;0.80;;
70067;SDS011;57425;51.616;6.680;2023-04-25T13:04:51;1.97;;;0.67;;
70067;SDS011;57425;51.616;6.680;2023-04-25T13:07:16;1.00;;;0.60;;
70067;SDS011;57425;51.616;6.680;2023-04-25T13:09:42;5.60;;;1.13;;
70067;SDS011;57425;51.616;6.680;2023-04-25T13:12:08;3.80;;;0.80;;
70067;SDS011;57425;51.616;6.680;2023-04-25T13:14:33;2.50;;;0.47;;
70067;SDS011;57425;51.616;6.680;2023-04-25T13:16:59;1.63;;;0.57;;
70067;SDS011;57425;51.616;6.680;2023-04-25T13:19:25;4.90;;;0.60;;
70067;SDS011;57425;51.616;6.680;2023-04-25T13:21:51;0.87;;;0.40;;
70067;SDS011;57425;51.616;6.680;2023-04-25T13:24:16;0.73;;;0.60;;
70067;SDS011;57425;51.616;6.680;2023-04-25T13:26:42;2.83;;;0.60;;
70067;SDS011;57425;51.616;6.680;2023-04-25T13:29:08;7.93;;;0.53;;
70067;SDS011;57425;51.616;6.680;2023-04-25T13:31:34;0.90;;;0.70;;
70067;SDS011;57425;51.616;6.680;2023-04-25T13:34:00;2.43;;;0.50;;
70067;SDS011;57425;51.616;6.680;2023-04-25T13:36:25;3.80;;;0.40;;
70067;SDS011;57425;51.616;6.680;2023-04-25T13:38:51;2.70;;;1.00;;
70067;SDS011;57425;51.616;6.680;2023-04-25T13:41:16;4.23;;;0.70;;
70067;SDS011;57425;51.616;6.680;2023-04-25T13:43:44;5.00;;;0.70;;
70067;SDS011;57425;51.616;6.680;2023-04-25T13:46:11;2.93;;;0.60;;
70067;SDS011;57425;51.616;6.680;2023-04-25T13:48:38;5.80;;;0.90;;
70067;SDS011;57425;51.616;6.680;2023-04-25T13:51:04;3.03;;;0.53;;
70067;SDS011;57425;51.616;6.680;2023-04-25T13:53:29;3.60;;;0.60;;
70067;SDS011;57425;51.616;6.680;2023-04-25T13:55:55;1.63;;;0.80;;
70067;SDS011;57425;51.616;6.680;2023-04-25T13:58:21;2.30;;;0.60;;
70067;SDS011;57425;51.616;6.680;2023-04-25T14:00:47;0.87;;;0.63;;
70067;SDS011;57425;51.616;6.680;2023-04-25T14:03:13;2.07;;;0.70;;
70067;SDS011;57425;51.616;6.680;2023-04-25T14:05:38;2.07;;;0.60;;
70067;SDS011;57425;51.616;6.680;2023-04-25T14:08:05;6.50;;;0.63;;
70067;SDS011;57425;51.616;6.680;2023-04-25T14:10:32;4.20;;;0.83;;
70067;SDS011;57425;51.616;6.680;2023-04-25T14:12:59;3.07;;;0.40;;
70067;SDS011;57425;51.616;6.680;2023-04-25T14:15:25;4.43;;;0.70;;
70067;SDS011;57425;51.616;6.680;2023-04-25T14:17:51;4.23;;;0.80;;
70067;SDS011;57425;51.616;6.680;2023-04-25T14:20:16;1.50;;;0.50;;
70067;SDS011;57425;51.616;6.680;2023-04-25T14:22:45;3.17;;;0.80;;
70067;SDS011;57425;51.616;6.680;2023-04-25T14:25:11;5.20;;;0.60;;
70067;SDS011;57425;51.616;6.680;2023-04-25T14:27:37;5.20;;;0.70;;
70067;SDS011;57425;51.616;6.680;2023-04-25T14:30:02;4.33;;;0.93;;
70067;SDS011;57425;51.616;6.680;2023-04-25T14:32:29;7.77;;;1.00;;
70067;SDS011;57425;51.616;6.680;2023-04-25T14:34:56;1.80;;;0.60;;
70067;SDS011;57425;51.616;6.680;2023-04-25T14:37:22;3.50;;;0.80;;
70067;SDS011;57425;51.616;6.680;2023-04-25T14:39:48;8.17;;;0.43;;
70067;SDS011;57425;51.616;6.680;2023-04-25T14:42:13;14.43;;;0.93;;
70067;SDS011;57425;51.616;6.680;2023-04-25T14:44:40;5.10;;;0.60;;
70067;SDS011;57425;51.616;6.680;2023-04-25T14:47:06;5.47;;;0.87;;
70067;SDS011;57425;51.616;6.680;2023-04-25T14:49:32;3.50;;;0.60;;
70067;SDS011;57425;51.616;6.680;2023-04-25T14:51:59;2.37;;;0.57;;
70067;SDS011;57425;51.616;6.680;2023-04-25T14:54:25;2.20;;;0.50;;
70067;SDS011;57425;51.616;6.680;2023-04-25T14:56:50;0.70;;;0.57;;
70067;SDS011;57425;51.616;6.680;2023-04-25T14:59:16;3.63;;;0.70;;
70067;SDS011;57425;51.616;6.680;2023-04-25T15:01:43;0.47;;;0.40;;
70067;SDS011;57425;51.616;6.680;2023-04-25T15:04:08;0.87;;;0.60;;
70067;SDS011;57425;51.616;6.680;2023-04-25T15:06:35;0.83;;;0.43;;